Time;durP1;ratioP1;P1;durP2;ratioP2;P2;SDS_P1;SDS_P2;PMS_P1;PMS_P2;Temp;Humidity;BMP_temperature;BMP_pressure;BME280_temperature;BME280_humidity;BME280_pressure;Samples;Min_cycle;Max_cycle;Signal;HPM_P1;HPM_P2
2023/10/07 00:01:09;;;;;;;;;;;;;;;7.23;100.00;100552.41;4971727;28;19938;-80
2023/10/07 00:03:34;;;;;;;;;;;;;;;7.32;100.00;100551.38;4973047;28;19981;-78
2023/10/07 00:06:02;;;;;;;;;;;;;;;7.37;100.00;100542.50;4971358;28;19929;-82
2023/10/07 00:08:28;;;;;;;;;;;;;;;7.41;100.00;100552.06;4953085;28;19926;-80
2023/10/07 00:10:58;;;;;;;;;;;;;;;7.48;100.00;100557.25;4972159;28;19926;-80
2023/10/07 00:13:24;;;;;;;;;;;;;;;7.51;100.00;100544.00;4971725;28;20326;-82
2023/10/07 00:15:51;;;;;;;;;;;;;;;7.55;100.00;100543.91;4972235;28;19922;-81
2023/10/07 00:18:18;;;;;;;;;;;;;;;7.67;100.00;100552.50;4971060;28;19918;-83
2023/10/07 00:20:53;;;;;;;;;;;;;;;7.68;100.00;100551.63;4973057;28;20012;-83
2023/10/07 00:23:20;;;;;;;;;;;;;;;7.69;100.00;100546.31;4972291;28;19928;-79
2023/10/07 00:25:52;;;;;;;;;;;;;;;7.75;100.00;100550.59;4973022;28;19918;-81
2023/10/07 00:28:32;;;;;;;;;;;;;;;7.75;100.00;100542.66;4971072;28;19914;-85
2023/10/07 00:31:02;;;;;;;;;;;;;;;7.80;100.00;100549.63;4972875;28;19969;-82
2023/10/07 00:33:27;;;;;;;;;;;;;;;7.82;100.00;100541.66;4972015;28;20012;-83
2023/10/07 00:35:53;;;;;;;;;;;;;;;7.86;100.00;100537.19;4955613;28;20387;-83
2023/10/07 00:38:37;;;;;;;;;;;;;;;7.89;100.00;100537.13;4974474;28;19918;-81
2023/10/07 05:16:53;;;;;;;;;;;;;;;6.94;100.00;100574.84;5633099;23;20407;-87
2023/10/07 05:19:27;;;;;;;;;;;;;;;7.06;100.00;100565.84;5046835;28;20294;-88
2023/10/07 05:24:38;;;;;;;;;;;;;;;7.18;100.00;100575.31;5045022;28;20016;-87
2023/10/07 05:27:04;;;;;;;;;;;;;;;7.23;100.00;100568.22;5037753;28;19921;-87
2023/10/07 05:29:29;;;;;;;;;;;;;;;7.28;100.00;100574.28;5026755;28;19971;-88
2023/10/07 05:31:56;;;;;;;;;;;;;;;7.31;100.00;100574.22;5025490;28;19917;-85
2023/10/07 05:34:21;;;;;;;;;;;;;;;7.39;100.00;100580.25;5043686;28;19921;-87
2023/10/07 05:36:47;;;;;;;;;;;;;;;7.43;100.00;100587.19;5027501;28;20318;-86
2023/10/07 05:39:15;;;;;;;;;;;;;;;7.47;100.00;100593.28;5026456;28;19928;-87
2023/10/07 05:41:41;;;;;;;;;;;;;;;7.53;100.00;100602.84;5025573;28;19917;-86
2023/10/07 05:44:07;;;;;;;;;;;;;;;7.54;100.00;100599.31;5026470;28;19924;-85
2023/10/07 05:46:32;;;;;;;;;;;;;;;7.57;100.00;100594.88;5025161;28;19925;-86
2023/10/07 05:48:59;;;;;;;;;;;;;;;7.59;100.00;100594.84;5043065;28;19917;-87
2023/10/07 05:51:24;;;;;;;;;;;;;;;7.61;100.00;100593.03;5044648;28;19928;-85
2023/10/07 05:53:51;;;;;;;;;;;;;;;7.68;100.00;100592.03;5044028;28;19917;-87
2023/10/07 05:56:17;;;;;;;;;;;;;;;7.71;100.00;100589.34;5026318;28;19920;-89
2023/10/07 05:58:44;;;;;;;;;;;;;;;7.78;100.00;100598.00;5043260;28;20298;-88
2023/10/07 06:01:12;;;;;;;;;;;;;;;7.79;100.00;100586.56;5042580;28;19921;-88
2023/10/07 06:03:37;;;;;;;;;;;;;;;7.80;100.00;100580.38;5044168;28;19916;-88
2023/10/07 06:06:04;;;;;;;;;;;;;;;7.84;100.00;100574.16;5044402;28;20368;-89
2023/10/07 06:08:30;;;;;;;;;;;;;;;7.86;100.00;100574.13;5043348;28;19913;-84
2023/10/07 06:10:56;;;;;;;;;;;;;;;7.89;100.00;100580.22;5044249;28;19921;-87
2023/10/07 06:13:22;;;;;;;;;;;;;;;7.94;100.00;100585.41;5043782;28;19921;-87
2023/10/07 06:15:47;;;;;;;;;;;;;;;7.97;100.00;100593.25;5042327;28;19924;-87
2023/10/07 06:18:12;;;;;;;;;;;;;;;7.98;100.00;100584.47;5042324;28;20362;-86
2023/10/07 06:20:37;;;;;;;;;;;;;;;8.00;100.00;100593.22;5043582;28;19917;-87
2023/10/07 06:23:15;;;;;;;;;;;;;;;8.05;100.00;100590.47;5042326;28;19924;-85
2023/10/07 06:25:50;;;;;;;;;;;;;;;8.04;100.00;100589.63;5043642;28;19917;-88
2023/10/07 06:31:03;;;;;;;;;;;;;;;8.07;100.00;100584.25;5041137;28;20744;-84
2023/10/07 06:33:32;;;;;;;;;;;;;;;8.09;100.00;100589.50;5025869;28;19916;-85
2023/10/07 06:35:59;;;;;;;;;;;;;;;8.12;100.00;100586.81;5043051;28;20287;-84
2023/10/07 06:38:26;;;;;;;;;;;;;;;8.15;100.00;100592.03;5033526;28;19914;-85
2023/10/07 06:40:56;;;;;;;;;;;;;;;8.18;100.00;100591.97;5043358;28;19921;-84
2023/10/07 06:43:22;;;;;;;;;;;;;;;8.21;100.00;100601.59;5043375;28;19921;-84
2023/10/07 06:45:47;;;;;;;;;;;;;;;8.22;100.00;100598.03;5041961;28;20410;-82
2023/10/07 06:48:13;;;;;;;;;;;;;;;8.25;100.00;100611.19;5043225;28;20074;-86
2023/10/07 06:50:41;;;;;;;;;;;;;;;8.24;100.00;100610.31;5043220;28;19916;-85
2023/10/07 06:53:11;;;;;;;;;;;;;;;8.28;100.00;100600.56;5042152;28;20372;-86
2023/10/07 06:55:41;;;;;;;;;;;;;;;8.28;100.00;100593.53;5043847;28;20012;-86
2023/10/07 06:58:06;;;;;;;;;;;;;;;8.29;100.00;100592.63;5042167;28;19917;-86
2023/10/07 07:00:47;;;;;;;;;;;;;;;8.32;100.00;100600.47;5032860;28;19923;-85
2023/10/07 07:03:13;;;;;;;;;;;;;;;8.32;100.00;100607.53;5042728;28;19921;-86
2023/10/07 07:05:40;;;;;;;;;;;;;;;8.33;100.00;100604.00;5042766;28;19921;-87
2023/10/07 07:08:09;;;;;;;;;;;;;;;8.32;100.00;100604.91;5043129;28;19963;-90
2023/10/07 07:10:36;;;;;;;;;;;;;;;8.34;100.00;100608.38;5042950;28;20387;-90
2023/10/07 08:00:27;;;;;;;;;;;;;;;6.84;100.00;100650.47;5192951;22;19948;-79
2023/10/07 08:02:55;;;;;;;;;;;;;;;6.82;100.00;100649.63;5051924;28;20383;-80
2023/10/07 08:05:21;;;;;;;;;;;;;;;6.72;100.00;100645.41;5033858;28;20023;-81
2023/10/07 08:07:51;;;;;;;;;;;;;;;6.71;100.00;100660.31;5050584;28;20011;-79
2023/10/07 08:10:20;;;;;;;;;;;;;;;6.63;100.00;100662.16;5052020;28;19917;-80
2023/10/07 08:12:46;;;;;;;;;;;;;;;6.56;100.00;100663.16;5051903;28;19995;-79
2023/10/07 08:17:37;;;;;;;;;;;;;;;6.52;100.00;100656.16;5051940;28;20386;-79
2023/10/07 08:20:13;;;;;;;;;;;;;;;6.43;100.00;100656.28;5043984;28;19921;-80
2023/10/07 08:22:45;;;;;;;;;;;;;;;6.51;100.00;100651.78;5033784;28;19967;-80
2023/10/07 08:25:10;;;;;;;;;;;;;;;6.43;100.00;100654.53;5051935;28;20402;-80
2023/10/07 08:27:45;;;;;;;;;;;;;;;6.37;100.00;100649.34;5051699;28;19917;-81
2023/10/07 08:30:14;;;;;;;;;;;;;;;6.36;100.00;100648.44;5050402;28;19963;-79
2023/10/07 08:32:41;;;;;;;;;;;;;;;6.31;100.00;100638.88;5051534;28;19917;-80
2023/10/07 08:35:17;;;;;;;;;;;;;;;6.33;100.00;100637.97;5033661;28;19970;-79
2023/10/07 08:37:45;;;;;;;;;;;;;;;6.35;100.00;100644.09;5032468;28;19917;-80
2023/10/07 08:40:14;;;;;;;;;;;;;;;6.29;100.00;100644.16;5050422;28;20382;-80
2023/10/07 08:42:44;;;;;;;;;;;;;;;6.31;100.00;100645.00;5051421;28;20351;-82
2023/10/07 08:45:14;;;;;;;;;;;;;;;6.29;100.00;100651.19;5050248;28;20023;-81
2023/10/07 08:47:49;;;;;;;;;;;;;;;6.27;100.00;100651.22;5051741;28;19917;-80
2023/10/07 08:50:18;;;;;;;;;;;;;;;6.25;100.00;100655.59;5032615;28;19923;-80
2023/10/07 08:52:44;;;;;;;;;;;;;;;6.16;100.00;100656.59;5051649;28;19921;-80
2023/10/07 08:55:09;;;;;;;;;;;;;;;6.20;100.00;100660.03;5033341;28;19986;-80
2023/10/07 08:57:36;;;;;;;;;;;;;;;6.20;100.00;100662.69;5052183;28;20003;-82
2023/10/07 09:00:10;;;;;;;;;;;;;;;6.18;100.00;100653.94;5035786;28;19975;-80
2023/10/07 09:02:36;;;;;;;;;;;;;;;6.05;100.00;100663.72;5055137;28;20372;-80
2023/10/07 09:05:15;;;;;;;;;;;;;;;6.18;100.00;100667.09;5055137;28;20007;-79
2023/10/07 09:07:48;;;;;;;;;;;;;;;6.15;100.00;100669.75;5055302;28;19920;-81
2023/10/07 09:10:17;;;;;;;;;;;;;;;6.08;100.00;100663.69;5054943;28;20000;-80
2023/10/07 09:12:46;;;;;;;;;;;;;;;6.03;100.00;100670.75;5055024;28;19924;-80
2023/10/07 09:15:36;;;;;;;;;;;;;;;6.03;100.00;100670.75;5053585;28;19917;-80
2023/10/07 09:18:03;;;;;;;;;;;;;;;6.01;100.00;100667.25;5054799;28;19924;-80
2023/10/07 09:20:29;;;;;;;;;;;;;;;5.90;100.00;100675.22;5054953;28;19935;-80
2023/10/07 09:23:14;;;;;;;;;;;;;;;5.84;100.00;100675.31;5054747;28;19963;-80
2023/10/07 09:25:46;;;;;;;;;;;;;;;5.91;100.00;100674.34;5054347;28;19927;-81
2023/10/07 09:28:13;;;;;;;;;;;;;;;5.94;100.00;100663.78;5035967;28;19917;-80
2023/10/07 09:30:45;;;;;;;;;;;;;;;5.91;100.00;100660.31;5053951;28;20376;-80
2023/10/07 09:33:17;;;;;;;;;;;;;;;5.94;100.00;100650.63;5054685;28;19917;-81
2023/10/07 09:35:43;;;;;;;;;;;;;;;5.83;100.00;100653.38;5054458;28;19920;-80
2023/10/07 09:38:12;;;;;;;;;;;;;;;5.82;100.00;100654.28;5054755;28;19912;-80
2023/10/07 09:43:27;;;;;;;;;;;;;;;5.82;100.00;100640.22;5052866;28;19927;-80
2023/10/07 09:45:52;;;;;;;;;;;;;;;5.77;100.00;100636.78;5054136;28;19920;-80
2023/10/07 09:48:29;;;;;;;;;;;;;;;5.74;100.00;100629.78;5054575;28;20315;-80
2023/10/07 09:50:57;;;;;;;;;;;;;;;5.74;100.00;100626.28;5054167;28;19917;-80
2023/10/07 09:53:46;;;;;;;;;;;;;;;5.80;100.00;100620.97;5054426;28;20007;-80
2023/10/07 09:56:21;;;;;;;;;;;;;;;5.83;100.00;100623.56;5054355;28;19946;-83
2023/10/07 09:59:13;;;;;;;;;;;;;;;5.70;100.00;100629.84;5034658;28;19966;-80
2023/10/07 10:02:05;;;;;;;;;;;;;;;5.73;100.00;100629.81;5053125;28;19921;-80
2023/10/07 10:04:46;;;;;;;;;;;;;;;5.74;100.00;100627.16;5053168;28;20425;-80
2023/10/07 10:07:28;;;;;;;;;;;;;;;5.76;100.00;100624.50;5054102;28;19932;-79
2023/10/07 10:10:07;;;;;;;;;;;;;;;5.75;100.00;100620.16;5052692;28;19923;-79
2023/10/07 10:12:53;;;;;;;;;;;;;;;5.73;100.00;100624.56;5053968;28;19928;-79
2023/10/07 10:17:53;;;;;;;;;;;;;;;5.80;100.00;100626.22;5053849;28;20288;-80
2023/10/07 10:20:22;;;;;;;;;;;;;;;5.74;100.00;100631.53;5053645;28;19962;-81
2023/10/07 10:22:57;;;;;;;;;;;;;;;5.83;100.00;100627.06;5035338;28;19917;-80
2023/10/07 10:25:25;;;;;;;;;;;;;;;5.77;100.00;100615.75;5035509;28;20351;-80
2023/10/07 10:27:58;;;;;;;;;;;;;;;5.77;100.00;100623.63;5052764;28;20074;-80
2023/10/07 10:30:24;;;;;;;;;;;;;;;5.69;100.00;100612.31;5034079;28;19921;-80
2023/10/07 10:32:51;;;;;;;;;;;;;;;5.73;100.00;100606.16;5035604;28;19923;-80
2023/10/07 10:35:21;;;;;;;;;;;;;;;5.70;100.00;100604.41;5053607;28;20303;-80
2023/10/07 10:37:59;;;;;;;;;;;;;;;5.67;100.00;100600.94;5053169;28;19927;-81
2023/10/07 10:40:31;;;;;;;;;;;;;;;5.70;100.00;100595.66;5035521;28;19916;-80
2023/10/07 10:42:57;;;;;;;;;;;;;;;5.73;100.00;100595.63;5052970;28;19925;-80
2023/10/07 10:45:24;;;;;;;;;;;;;;;5.75;100.00;100593.84;5033812;28;19917;-80
2023/10/07 10:47:51;;;;;;;;;;;;;;;5.74;100.00;100592.09;5053208;28;19963;-80
2023/10/07 10:50:17;;;;;;;;;;;;;;;5.76;100.00;100593.84;5053040;28;20009;-80
2023/10/07 10:52:43;;;;;;;;;;;;;;;5.71;100.00;100605.28;5053167;28;20383;-83
2023/10/07 10:55:08;;;;;;;;;;;;;;;5.75;100.00;100604.38;5053068;28;19917;-80
2023/10/07 10:57:39;;;;;;;;;;;;;;;5.70;100.00;100609.66;5053118;28;19928;-81
2023/10/07 11:00:16;;;;;;;;;;;;;;;5.79;100.00;100609.59;5051529;28;19967;-80
2023/10/07 11:02:41;;;;;;;;;;;;;;;5.77;100.00;100613.09;5052644;28;19928;-81
2023/10/07 11:05:08;;;;;;;;;;;;;;;5.73;100.00;100603.53;5052810;28;19924;-82
2023/10/07 11:07:36;;;;;;;;;;;;;;;5.67;100.00;100608.84;5053224;28;19923;-82
2023/10/07 11:10:04;;;;;;;;;;;;;;;5.71;100.00;100602.66;5052728;28;19920;-81
2023/10/07 11:12:29;;;;;;;;;;;;;;;5.61;100.00;100600.09;5051695;28;19964;-81
2023/10/07 11:15:03;;;;;;;;;;;;;;;5.68;100.00;100605.31;5051299;28;19956;-81
2023/10/07 11:17:29;;;;;;;;;;;;;;;5.74;100.00;100606.09;5052347;28;19952;-82
2023/10/07 11:19:54;;;;;;;;;;;;;;;5.71;100.00;100602.66;5052629;28;19991;-81
2023/10/07 11:22:20;;;;;;;;;;;;;;;5.66;100.00;100601.81;5052621;28;19924;-80
2023/10/07 11:24:48;;;;;;;;;;;;;;;5.70;100.00;100600.94;5034693;28;20311;-81
2023/10/07 11:27:14;;;;;;;;;;;;;;;5.66;100.00;100594.78;5052490;28;19921;-81
2023/10/07 11:29:40;;;;;;;;;;;;;;;5.73;100.00;100588.59;5051287;28;19917;-83
2023/10/07 11:32:06;;;;;;;;;;;;;;;5.73;100.00;100585.97;5034370;28;19920;-82
2023/10/07 11:34:37;;;;;;;;;;;;;;;5.77;100.00;100584.19;5052362;28;20015;-81
2023/10/07 11:37:10;;;;;;;;;;;;;;;5.75;100.00;100585.97;5052078;28;20096;-81
2023/10/07 11:39:43;;;;;;;;;;;;;;;5.69;100.00;100589.50;5034152;28;19924;-81
2023/10/07 11:42:09;;;;;;;;;;;;;;;5.69;100.00;100588.66;5051669;28;19967;-80
2023/10/07 11:44:36;;;;;;;;;;;;;;;5.67;100.00;100572.88;5050587;28;19968;-80
2023/10/07 11:47:01;;;;;;;;;;;;;;;5.59;100.00;100578.22;5052136;28;20342;-82
2023/10/07 11:49:27;;;;;;;;;;;;;;;5.67;100.00;100574.66;5052232;28;19917;-86
2023/10/07 11:51:54;;;;;;;;;;;;;;;5.68;100.00;100572.00;5033787;28;19963;-82
2023/10/07 11:54:24;;;;;;;;;;;;;;;5.80;100.00;100563.09;5052194;28;19927;-82
2023/10/07 11:56:49;;;;;;;;;;;;;;;5.80;100.00;100569.22;5052195;28;19920;-80
2023/10/07 11:59:14;;;;;;;;;;;;;;;5.70;100.00;100566.75;5050520;28;20364;-81
2023/10/07 12:01:40;;;;;;;;;;;;;;;5.75;100.00;100555.25;5051868;28;19982;-81
2023/10/07 12:04:05;;;;;;;;;;;;;;;5.77;100.00;100550.84;5033719;28;20003;-80
2023/10/07 12:06:32;;;;;;;;;;;;;;;5.78;100.00;100549.13;5052116;28;19990;-83
2023/10/07 12:09:03;;;;;;;;;;;;;;;5.74;100.00;100552.66;5051949;28;19912;-82
2023/10/07 12:11:31;;;;;;;;;;;;;;;5.73;100.00;100553.56;5051466;28;19924;-81
2023/10/07 12:13:57;;;;;;;;;;;;;;;5.77;100.00;100552.63;5050395;28;19913;-81
2023/10/07 12:16:22;;;;;;;;;;;;;;;5.72;100.00;100557.06;5051891;28;20007;-82
2023/10/07 12:18:48;;;;;;;;;;;;;;;5.85;100.00;100555.16;5051884;28;19917;-81
2023/10/07 12:21:14;;;;;;;;;;;;;;;5.80;100.00;100557.84;5051728;28;19923;-82
2023/10/07 12:23:42;;;;;;;;;;;;;;;5.80;100.00;100552.59;5050764;28;19916;-81
2023/10/07 12:26:12;;;;;;;;;;;;;;;5.79;100.00;100551.72;5051546;28;19917;-81
2023/10/07 12:28:37;;;;;;;;;;;;;;;5.80;100.00;100552.59;5050522;28;20366;-80
2023/10/07 12:31:14;;;;;;;;;;;;;;;5.83;100.00;100568.34;5051704;28;19964;-81
2023/10/07 12:33:40;;;;;;;;;;;;;;;5.78;100.00;100568.38;5051942;28;20000;-81
2023/10/07 12:36:09;;;;;;;;;;;;;;;5.91;100.00;100571.75;5054384;28;20354;-81
2023/10/07 12:38:34;;;;;;;;;;;;;;;5.81;100.00;100564.88;5037424;28;20376;-82
2023/10/07 12:41:00;;;;;;;;;;;;;;;5.78;100.00;100567.53;5055346;28;19956;-80
2023/10/07 12:43:26;;;;;;;;;;;;;;;5.79;100.00;100569.25;5054300;28;20031;-82
2023/10/07 12:45:51;;;;;;;;;;;;;;;5.76;100.00;100562.28;5055647;28;20264;-82
2023/10/07 12:48:18;;;;;;;;;;;;;;;5.81;100.00;100562.22;5055450;28;19943;-81
2023/10/07 12:50:44;;;;;;;;;;;;;;;5.83;100.00;100555.19;5055474;28;20393;-81
2023/10/07 12:53:10;;;;;;;;;;;;;;;5.79;100.00;100553.47;5055438;28;20011;-82
2023/10/07 12:55:36;;;;;;;;;;;;;;;5.72;100.00;100557.94;5055311;28;19956;-81
2023/10/07 12:58:13;;;;;;;;;;;;;;;5.70;100.00;100554.44;5055317;28;19983;-80
2023/10/07 13:00:41;;;;;;;;;;;;;;;5.78;100.00;100554.38;5054695;28;19921;-81
2023/10/07 13:03:06;;;;;;;;;;;;;;;5.81;100.00;100551.72;5054967;28;19939;-80
2023/10/07 13:05:37;;;;;;;;;;;;;;;5.81;100.00;100554.34;5055120;28;19987;-81
2023/10/07 13:08:12;;;;;;;;;;;;;;;5.87;100.00;100554.28;5054157;28;19924;-82
2023/10/07 13:10:38;;;;;;;;;;;;;;;5.85;100.00;100556.03;5054965;28;19974;-85
2023/10/07 13:13:04;;;;;;;;;;;;;;;5.78;100.00;100559.63;5036908;28;19913;-81
2023/10/07 13:15:34;;;;;;;;;;;;;;;5.82;100.00;100550.81;5053626;28;19970;-81
2023/10/07 13:18:01;;;;;;;;;;;;;;;5.80;100.00;100560.47;5054970;28;20375;-81
2023/10/07 13:20:27;;;;;;;;;;;;;;;5.87;100.00;100554.28;5054710;28;19921;-81
2023/10/07 13:22:53;;;;;;;;;;;;;;;5.79;100.00;100559.63;5053502;28;19920;-81
2023/10/07 13:25:19;;;;;;;;;;;;;;;5.83;100.00;100563.06;5054797;28;20315;-80
2023/10/07 13:27:47;;;;;;;;;;;;;;;5.77;100.00;100555.25;5054841;28;20287;-80
2023/10/07 13:30:13;;;;;;;;;;;;;;;5.74;100.00;100550.88;5053227;28;19963;-80
2023/10/07 13:32:46;;;;;;;;;;;;;;;5.77;100.00;100552.63;5054876;28;19917;-80
2023/10/07 13:35:14;;;;;;;;;;;;;;;5.81;100.00;100555.19;5054492;28;19921;-82
2023/10/07 13:37:40;;;;;;;;;;;;;;;5.79;100.00;100550.84;5054621;28;19921;-79
2023/10/07 13:40:10;;;;;;;;;;;;;;;5.82;100.00;100548.16;5020020;28;19999;-80
2023/10/07 13:42:36;;;;;;;;;;;;;;;5.80;100.00;100547.31;5054533;28;19917;-80
2023/10/07 13:45:08;;;;;;;;;;;;;;;5.75;100.00;100539.50;5033531;28;19927;-80
2023/10/07 13:47:33;;;;;;;;;;;;;;;5.79;100.00;100541.22;5054371;28;19971;-80
2023/10/07 13:49:58;;;;;;;;;;;;;;;5.85;100.00;100545.50;5036223;28;19925;-80
2023/10/07 13:52:24;;;;;;;;;;;;;;;5.81;100.00;100539.44;5054213;28;19917;-80
2023/10/07 13:55:18;;;;;;;;;;;;;;;5.77;100.00;100535.06;5054381;28;19971;-79
2023/10/07 13:57:44;;;;;;;;;;;;;;;5.73;100.00;100532.53;5054288;28;20007;-80
2023/10/07 14:00:27;;;;;;;;;;;;;;;5.77;100.00;100532.44;5052547;28;19928;-80
2023/10/07 14:02:53;;;;;;;;;;;;;;;5.82;100.00;100535.03;5054079;28;19916;-80
2023/10/07 14:05:18;;;;;;;;;;;;;;;5.81;100.00;100538.56;5035883;28;19921;-81
2023/10/07 14:07:43;;;;;;;;;;;;;;;5.80;100.00;100532.41;5052902;28;19924;-81
2023/10/07 14:10:09;;;;;;;;;;;;;;;5.91;100.00;100537.56;5054310;28;19917;-80
2023/10/07 14:12:36;;;;;;;;;;;;;;;5.90;100.00;100540.19;5053921;28;20021;-80
2023/10/07 14:15:03;;;;;;;;;;;;;;;5.89;100.00;100546.34;5052569;28;19966;-80
2023/10/07 14:17:30;;;;;;;;;;;;;;;5.86;100.00;100541.16;5053263;28;19917;-81
2023/10/07 14:19:56;;;;;;;;;;;;;;;5.84;100.00;100538.53;5053918;28;19921;-81
2023/10/07 14:22:21;;;;;;;;;;;;;;;5.83;100.00;100537.63;5035518;28;19925;-81
2023/10/07 14:24:47;;;;;;;;;;;;;;;5.92;100.00;100530.53;5053789;28;19940;-80
2023/10/07 14:27:13;;;;;;;;;;;;;;;5.91;100.00;100534.06;5053466;28;20334;-80
2023/10/07 14:29:38;;;;;;;;;;;;;;;5.86;100.00;100528.84;5051656;28;19919;-82
2023/10/07 14:32:06;;;;;;;;;;;;;;;5.85;100.00;100529.72;5053589;28;19916;-83
2023/10/07 14:34:32;;;;;;;;;;;;;;;5.92;100.00;100533.16;5053545;28;20342;-80
2023/10/07 14:36:59;;;;;;;;;;;;;;;5.87;100.00;100527.09;5053433;28;19916;-80
2023/10/07 14:39:27;;;;;;;;;;;;;;;5.83;100.00;100527.13;5053210;28;20547;-81
2023/10/07 14:41:52;;;;;;;;;;;;;;;5.82;100.00;100530.66;5053280;28;20009;-80
2023/10/07 14:44:18;;;;;;;;;;;;;;;5.89;100.00;100525.28;5051909;28;20011;-80
2023/10/07 14:46:44;;;;;;;;;;;;;;;5.85;100.00;100519.22;5053397;28;19917;-80
2023/10/07 14:49:10;;;;;;;;;;;;;;;5.87;100.00;100524.44;5052297;28;19916;-80
2023/10/07 14:51:35;;;;;;;;;;;;;;;5.87;100.00;100529.72;5053209;28;20015;-80
2023/10/07 14:54:01;;;;;;;;;;;;;;;5.90;100.00;100527.91;5053245;28;19921;-80
2023/10/07 14:56:26;;;;;;;;;;;;;;;5.86;100.00;100526.22;5034369;28;20007;-80
2023/10/07 14:58:51;;;;;;;;;;;;;;;5.82;100.00;100524.50;5051779;28;19921;-79
2023/10/07 15:01:22;;;;;;;;;;;;;;;5.79;100.00;100529.78;5052703;28;19927;-81
2023/10/07 15:03:47;;;;;;;;;;;;;;;5.81;100.00;100525.41;5052878;28;19979;-80
2023/10/07 15:06:16;;;;;;;;;;;;;;;5.75;100.00;100521.06;5052827;28;19924;-80
2023/10/07 15:08:42;;;;;;;;;;;;;;;5.78;100.00;100523.69;5052980;28;19921;-80
2023/10/07 15:11:07;;;;;;;;;;;;;;;5.85;100.00;100519.22;5052650;28;20386;-80
2023/10/07 15:13:34;;;;;;;;;;;;;;;5.83;100.00;100513.09;5051517;28;19921;-80
2023/10/07 15:16:11;;;;;;;;;;;;;;;5.81;100.00;100522.78;5052802;28;19924;-82
2023/10/07 15:18:37;;;;;;;;;;;;;;;5.93;100.00;100516.50;5052243;28;19917;-80
2023/10/07 15:21:05;;;;;;;;;;;;;;;5.87;100.00;100517.44;5052615;28;20279;-82
2023/10/07 15:23:30;;;;;;;;;;;;;;;5.87;100.00;100517.44;5050958;28;20389;-83
2023/10/07 15:25:57;;;;;;;;;;;;;;;5.83;100.00;100526.25;5052421;28;20051;-80
2023/10/07 15:28:23;;;;;;;;;;;;;;;5.92;100.00;100530.53;5051143;28;19917;-80
2023/10/07 15:30:49;;;;;;;;;;;;;;;5.88;100.00;100532.31;5052703;28;19916;-80
2023/10/07 15:33:16;;;;;;;;;;;;;;;5.82;100.00;100529.75;5034336;28;20347;-80
2023/10/07 15:35:44;;;;;;;;;;;;;;;5.82;100.00;100529.75;5052425;28;19968;-80
2023/10/07 15:38:13;;;;;;;;;;;;;;;5.86;100.00;100530.63;5052174;28;19917;-80
2023/10/07 15:40:41;;;;;;;;;;;;;;;5.80;100.00;100526.28;5052432;28;19924;-81
2023/10/07 15:43:11;;;;;;;;;;;;;;;5.78;100.00;100531.56;5051711;28;19917;-80
2023/10/07 15:45:54;;;;;;;;;;;;;;;5.83;100.00;100527.13;5050830;28;19920;-81
2023/10/07 15:48:27;;;;;;;;;;;;;;;5.77;100.00;100519.28;5034142;28;19913;-81
2023/10/07 15:50:53;;;;;;;;;;;;;;;5.81;100.00;100525.41;5052009;28;19975;-80
2023/10/07 15:53:18;;;;;;;;;;;;;;;5.81;100.00;100526.28;5052113;28;19958;-80
2023/10/07 15:55:44;;;;;;;;;;;;;;;5.79;100.00;100535.06;5052189;28;19952;-80
2023/10/07 15:58:09;;;;;;;;;;;;;;;5.76;100.00;100525.47;5051734;28;19917;-79
2023/10/07 16:00:35;;;;;;;;;;;;;;;5.83;100.00;100521.84;5050048;28;20376;-81
2023/10/07 16:03:01;;;;;;;;;;;;;;;5.77;100.00;100521.91;5033804;28;19921;-80
2023/10/07 16:05:34;;;;;;;;;;;;;;;5.78;100.00;100520.19;5050776;28;19916;-80
2023/10/07 16:08:05;;;;;;;;;;;;;;;12.75;100.00;100526.28;5050700;28;19920;-81
2023/10/07 16:10:31;;;;;;;;;;;;;;;8.93;100.00;100518.13;5051823;28;20490;-81
2023/10/07 16:12:56;;;;;;;;;;;;;;;7.40;100.00;100523.09;5033863;28;19971;-81
2023/10/07 16:15:24;;;;;;;;;;;;;;;7.01;100.00;100525.53;5049250;28;19917;-81
2023/10/07 16:17:50;;;;;;;;;;;;;;;7.28;100.00;100534.75;5052356;28;19923;-81
2023/10/07 16:20:18;;;;;;;;;;;;;;;7.01;100.00;100525.53;5033657;28;20376;-80
2023/10/07 16:22:43;;;;;;;;;;;;;;;6.93;100.00;100523.03;5033948;28;19927;-80
2023/10/07 16:25:09;;;;;;;;;;;;;;;6.78;100.00;100517.97;5050541;28;20044;-80
2023/10/07 16:27:35;;;;;;;;;;;;;;;6.63;100.00;100519.09;5051681;28;19921;-79
2023/10/07 16:30:05;;;;;;;;;;;;;;;6.52;100.00;100517.47;5032633;28;19924;-80
2023/10/07 16:32:30;;;;;;;;;;;;;;;6.62;100.00;100514.72;5051123;28;19952;-81
2023/10/07 16:34:56;;;;;;;;;;;;;;;6.52;100.00;100517.47;5051732;28;19967;-80
2023/10/07 16:37:21;;;;;;;;;;;;;;;6.48;100.00;100520.22;5051965;28;19921;-81
2023/10/07 16:39:46;;;;;;;;;;;;;;;6.52;100.00;100521.88;5051662;28;19916;-80
2023/10/07 16:42:11;;;;;;;;;;;;;;;6.55;100.00;100529.75;5051588;28;20333;-81
2023/10/07 16:44:37;;;;;;;;;;;;;;;6.48;100.00;100536.84;5050198;28;20008;-81
2023/10/07 16:47:02;;;;;;;;;;;;;;;6.49;100.00;100538.63;5050232;28;19925;-81
2023/10/07 16:49:28;;;;;;;;;;;;;;;6.50;100.00;100531.56;5051496;28;19917;-81
2023/10/07 16:51:54;;;;;;;;;;;;;;;6.38;100.00;100526.47;5033341;28;19978;-81
2023/10/07 16:54:19;;;;;;;;;;;;;;;6.38;100.00;100522.06;5033334;28;19960;-81
2023/10/07 16:56:46;;;;;;;;;;;;;;;6.32;100.00;100517.78;5033234;28;19940;-81
2023/10/07 16:59:11;;;;;;;;;;;;;;;6.33;100.00;100531.78;5032442;28;20449;-82
2023/10/07 17:01:38;;;;;;;;;;;;;;;6.36;100.00;100532.63;5051085;28;20023;-82
2023/10/07 17:04:03;;;;;;;;;;;;;;;6.28;100.00;100529.22;5051297;28;20291;-81
2023/10/07 17:06:29;;;;;;;;;;;;;;;6.10;100.00;100538.22;5050151;28;19916;-80
2023/10/07 17:08:54;;;;;;;;;;;;;;;6.30;100.00;100534.47;5051193;28;19917;-80
2023/10/07 17:11:20;;;;;;;;;;;;;;;6.28;100.00;100529.22;5051501;28;20567;-81
2023/10/07 17:13:46;;;;;;;;;;;;;;;6.67;100.00;100526.94;5050338;28;19931;-81
2023/10/07 17:16:15;;;;;;;;;;;;;;;10.68;100.00;100527.44;5050649;28;19921;-82
2023/10/07 17:18:40;;;;;;;;;;;;;;;14.46;100.00;100531.34;5033654;28;19924;-83
2023/10/07 17:21:09;;;;;;;;;;;;;;;14.95;100.00;100517.44;5054793;28;19921;-83
2023/10/07 17:23:34;;;;;;;;;;;;;;;15.15;100.00;100501.31;5054421;28;20391;-79
2023/10/07 17:26:00;;;;;;;;;;;;;;;15.31;100.00;100513.88;5054905;28;19916;-83
2023/10/07 17:28:27;;;;;;;;;;;;;;;15.47;100.00;100508.63;5053387;28;19971;-86
2023/10/07 17:30:53;;;;;;;;;;;;;;;15.49;100.00;100512.06;5054840;28;19924;-81
2023/10/07 17:33:21;;;;;;;;;;;;;;;16.07;100.00;100510.84;5054694;28;19917;-83
2023/10/07 17:35:47;;;;;;;;;;;;;;;16.75;100.00;100521.28;5055327;28;20333;-87
2023/10/07 17:38:13;;;;;;;;;;;;;;;17.07;100.00;100515.94;5053854;28;19964;-83
2023/10/07 17:40:38;;;;;;;;;;;;;;;17.19;100.00;100522.41;5036488;28;19921;-83
2023/10/07 17:43:05;;;;;;;;;;;;;;;17.38;100.00;100520.34;5054578;28;20522;-84
2023/10/07 17:45:31;;;;;;;;;;;;;;;17.49;100.00;100525.06;5049964;28;19966;-83
2023/10/07 17:47:56;;;;;;;;;;;;;;;17.43;100.00;100528.09;5034421;28;19925;-82
2023/10/07 17:50:21;;;;;;;;;;;;;;;17.57;100.00;100524.59;5052446;28;19925;-84
2023/10/07 17:52:47;;;;;;;;;;;;;;;17.35;100.00;100528.56;5052853;28;20004;-83
2023/10/07 17:55:13;;;;;;;;;;;;;;;16.32;100.00;100529.03;5054177;28;19924;-83
2023/10/07 17:57:40;;;;;;;;;;;;;;;16.01;100.00;100546.75;5054245;28;20277;-82
2023/10/07 18:00:09;;;;;;;;;;;;;;;15.74;100.00;100544.56;5051678;28;19956;-81
2023/10/07 18:02:36;;;;;;;;;;;;;;;13.87;100.00;100555.31;5052867;28;19994;-83
2023/10/07 18:05:02;;;;;;;;;;;;;;;11.44;100.00;100558.53;5054118;28;19991;-83
2023/10/07 18:07:28;;;;;;;;;;;;;;;9.79;100.00;100571.44;5054013;28;20328;-84
2023/10/07 18:09:53;;;;;;;;;;;;;;;8.89;100.00;100577.28;5053972;28;20014;-81
2023/10/07 18:12:19;;;;;;;;;;;;;;;8.51;100.00;100579.00;5035724;28;19916;-81
2023/10/07 18:14:44;;;;;;;;;;;;;;;8.24;100.00;100583.94;5052498;28;19921;-82
2023/10/07 18:17:10;;;;;;;;;;;;;;;8.00;100.00;100587.94;5053638;28;19927;-82